Terminal Aerodrome Forecast
Issued by NWS Miami, FL

Current Version | Previous Version | Text Only | Print | Product List | Glossary On
Versions: 1 2 3 4 5 6 7 8 9 10 11 12 13 14 15 16 17 18 19 20 21 22 23 24 25 26 27 28 29 30 31 32 33 34 35 36 37 38 39 40 41 42 43 44 45 46 47 48 49 50
000
FTUS42 KMFL 201900 AAA
TAFPBI
TAF AMD
KPBI 201900Z 2019/2118 14008KT P6SM SHRA VCTS SCT025CB BKN060
      TEMPO 2019/2020 4SM TSRA BKN025CB
     FM202300 11010KT P6SM VCSH SCT025 SCT060
     FM210200 09008KT P6SM FEW025 SCT050
     FM210600 10012KT P6SM FEW050 SCT250=

USA.gov is the U.S. government's official web portal to all federal, state and local government web resources and services.